sensor_id;sensor_type;location;lat;lon;timestamp;P1;durP1;ratioP1;P2;durP2;ratioP2
63398;SDS011;49533;-34.520;150.798;2023-04-15T00:02:16;1.40;;;0.50;;
63398;SDS011;49533;-34.520;150.798;2023-04-15T00:04:46;1.13;;;0.40;;
63398;SDS011;49533;-34.520;150.798;2023-04-15T00:07:13;2.63;;;0.70;;
63398;SDS011;49533;-34.520;150.798;2023-04-15T00:09:41;0.77;;;0.43;;
63398;SDS011;49533;-34.520;150.798;2023-04-15T00:12:10;1.67;;;0.52;;
63398;SDS011;49533;-34.520;150.798;2023-04-15T00:14:37;2.42;;;0.70;;
63398;SDS011;49533;-34.520;150.798;2023-04-15T00:17:05;1.25;;;0.50;;
63398;SDS011;49533;-34.520;150.798;2023-04-15T00:19:32;2.33;;;0.90;;
63398;SDS011;49533;-34.520;150.798;2023-04-15T00:21:59;2.53;;;0.60;;
63398;SDS011;49533;-34.520;150.798;2023-04-15T00:24:27;2.20;;;0.73;;
63398;SDS011;49533;-34.520;150.798;2023-04-15T00:26:55;1.65;;;0.70;;
63398;SDS011;49533;-34.520;150.798;2023-04-15T00:29:23;1.75;;;0.57;;
63398;SDS011;49533;-34.520;150.798;2023-04-15T00:31:50;1.67;;;0.60;;
63398;SDS011;49533;-34.520;150.798;2023-04-15T00:34:18;1.95;;;0.60;;
63398;SDS011;49533;-34.520;150.798;2023-04-15T00:36:45;1.60;;;0.52;;
63398;SDS011;49533;-34.520;150.798;2023-04-15T00:39:12;2.28;;;0.50;;
63398;SDS011;49533;-34.520;150.798;2023-04-15T00:41:41;1.45;;;0.40;;
63398;SDS011;49533;-34.520;150.798;2023-04-15T00:44:08;1.10;;;0.50;;
63398;SDS011;49533;-34.520;150.798;2023-04-15T00:46:36;1.63;;;0.60;;
63398;SDS011;49533;-34.520;150.798;2023-04-15T00:49:05;2.95;;;0.40;;
63398;SDS011;49533;-34.520;150.798;2023-04-15T00:51:33;0.98;;;0.30;;
63398;SDS011;49533;-34.520;150.798;2023-04-15T00:54:02;1.67;;;0.50;;
63398;SDS011;49533;-34.520;150.798;2023-04-15T00:56:30;1.40;;;0.60;;
63398;SDS011;49533;-34.520;150.798;2023-04-15T00:59:00;0.75;;;0.30;;
63398;SDS011;49533;-34.520;150.798;2023-04-15T01:01:28;1.38;;;0.68;;
63398;SDS011;49533;-34.520;150.798;2023-04-15T01:03:56;0.90;;;0.40;;
63398;SDS011;49533;-34.520;150.798;2023-04-15T01:06:23;1.10;;;0.30;;
63398;SDS011;49533;-34.520;150.798;2023-04-15T01:08:54;1.25;;;0.70;;
63398;SDS011;49533;-34.520;150.798;2023-04-15T01:11:22;1.95;;;0.40;;
63398;SDS011;49533;-34.520;150.798;2023-04-15T01:13:51;1.50;;;0.40;;
63398;SDS011;49533;-34.520;150.798;2023-04-15T01:16:18;1.25;;;0.47;;
63398;SDS011;49533;-34.520;150.798;2023-04-15T01:18:45;1.30;;;0.60;;
63398;SDS011;49533;-34.520;150.798;2023-04-15T01:21:14;2.05;;;0.70;;
63398;SDS011;49533;-34.520;150.798;2023-04-15T01:23:41;0.98;;;0.40;;
63398;SDS011;49533;-34.520;150.798;2023-04-15T01:26:12;2.10;;;0.60;;
63398;SDS011;49533;-34.520;150.798;2023-04-15T01:28:39;1.17;;;0.68;;
63398;SDS011;49533;-34.520;150.798;2023-04-15T01:31:07;1.55;;;0.55;;
63398;SDS011;49533;-34.520;150.798;2023-04-15T01:33:37;1.08;;;0.60;;
63398;SDS011;49533;-34.520;150.798;2023-04-15T01:36:05;1.83;;;0.60;;
63398;SDS011;49533;-34.520;150.798;2023-04-15T01:38:34;1.25;;;0.60;;
63398;SDS011;49533;-34.520;150.798;2023-04-15T01:41:03;1.40;;;0.47;;
63398;SDS011;49533;-34.520;150.798;2023-04-15T01:43:33;1.95;;;0.70;;
63398;SDS011;49533;-34.520;150.798;2023-04-15T01:46:01;1.10;;;0.63;;
63398;SDS011;49533;-34.520;150.798;2023-04-15T01:48:29;1.90;;;0.63;;
63398;SDS011;49533;-34.520;150.798;2023-04-15T01:50:58;1.10;;;0.43;;
63398;SDS011;49533;-34.520;150.798;2023-04-15T01:53:25;1.08;;;0.55;;
63398;SDS011;49533;-34.520;150.798;2023-04-15T01:55:53;1.15;;;0.65;;
63398;SDS011;49533;-34.520;150.798;2023-04-15T01:58:20;1.92;;;0.60;;
63398;SDS011;49533;-34.520;150.798;2023-04-15T02:00:47;0.65;;;0.40;;
63398;SDS011;49533;-34.520;150.798;2023-04-15T02:03:14;1.33;;;0.50;;
63398;SDS011;49533;-34.520;150.798;2023-04-15T02:05:42;4.18;;;1.05;;
63398;SDS011;49533;-34.520;150.798;2023-04-15T02:08:10;0.70;;;0.30;;
63398;SDS011;49533;-34.520;150.798;2023-04-15T02:10:38;0.93;;;0.57;;
63398;SDS011;49533;-34.520;150.798;2023-04-15T02:13:05;0.75;;;0.57;;
63398;SDS011;49533;-34.520;150.798;2023-04-15T02:15:32;1.85;;;0.75;;
63398;SDS011;49533;-34.520;150.798;2023-04-15T02:17:59;1.20;;;0.65;;
63398;SDS011;49533;-34.520;150.798;2023-04-15T02:20:27;1.38;;;0.80;;
63398;SDS011;49533;-34.520;150.798;2023-04-15T02:22:55;1.65;;;0.60;;
63398;SDS011;49533;-34.520;150.798;2023-04-15T02:25:22;1.23;;;0.70;;
63398;SDS011;49533;-34.520;150.798;2023-04-15T02:27:50;1.23;;;0.50;;
63398;SDS011;49533;-34.520;150.798;2023-04-15T02:30:17;1.48;;;0.70;;
63398;SDS011;49533;-34.520;150.798;2023-04-15T02:32:45;2.97;;;0.68;;
63398;SDS011;49533;-34.520;150.798;2023-04-15T02:35:13;1.52;;;0.50;;
63398;SDS011;49533;-34.520;150.798;2023-04-15T02:37:40;1.45;;;0.70;;
63398;SDS011;49533;-34.520;150.798;2023-04-15T02:40:10;1.05;;;0.60;;
63398;SDS011;49533;-34.520;150.798;2023-04-15T02:42:38;1.85;;;0.50;;
63398;SDS011;49533;-34.520;150.798;2023-04-15T02:45:06;1.65;;;0.60;;
63398;SDS011;49533;-34.520;150.798;2023-04-15T02:47:34;0.82;;;0.70;;
63398;SDS011;49533;-34.520;150.798;2023-04-15T02:50:02;1.45;;;0.70;;
63398;SDS011;49533;-34.520;150.798;2023-04-15T02:52:30;1.73;;;0.50;;
63398;SDS011;49533;-34.520;150.798;2023-04-15T02:54:57;0.63;;;0.60;;
63398;SDS011;49533;-34.520;150.798;2023-04-15T02:57:27;1.63;;;0.80;;
63398;SDS011;49533;-34.520;150.798;2023-04-15T02:59:54;0.85;;;0.52;;
63398;SDS011;49533;-34.520;150.798;2023-04-15T03:02:21;0.73;;;0.50;;
63398;SDS011;49533;-34.520;150.798;2023-04-15T03:04:49;1.08;;;0.50;;
63398;SDS011;49533;-34.520;150.798;2023-04-15T03:07:16;0.45;;;0.32;;
63398;SDS011;49533;-34.520;150.798;2023-04-15T03:09:45;0.88;;;0.68;;
63398;SDS011;49533;-34.520;150.798;2023-04-15T03:12:12;0.82;;;0.55;;
63398;SDS011;49533;-34.520;150.798;2023-04-15T03:14:39;0.57;;;0.40;;
63398;SDS011;49533;-34.520;150.798;2023-04-15T03:17:07;2.10;;;0.70;;
63398;SDS011;49533;-34.520;150.798;2023-04-15T03:19:34;2.25;;;1.15;;
63398;SDS011;49533;-34.520;150.798;2023-04-15T03:22:01;1.92;;;0.80;;
63398;SDS011;49533;-34.520;150.798;2023-04-15T03:24:28;1.88;;;0.50;;
63398;SDS011;49533;-34.520;150.798;2023-04-15T03:26:56;1.65;;;0.70;;
63398;SDS011;49533;-34.520;150.798;2023-04-15T03:29:23;1.55;;;0.60;;
63398;SDS011;49533;-34.520;150.798;2023-04-15T03:31:51;4.03;;;1.30;;
63398;SDS011;49533;-34.520;150.798;2023-04-15T03:34:18;3.42;;;1.20;;
63398;SDS011;49533;-34.520;150.798;2023-04-15T03:36:45;2.65;;;0.77;;
63398;SDS011;49533;-34.520;150.798;2023-04-15T03:39:13;1.30;;;0.88;;
63398;SDS011;49533;-34.520;150.798;2023-04-15T03:41:40;1.08;;;0.93;;
63398;SDS011;49533;-34.520;150.798;2023-04-15T03:44:07;1.55;;;0.85;;
63398;SDS011;49533;-34.520;150.798;2023-04-15T03:46:34;1.35;;;1.10;;
63398;SDS011;49533;-34.520;150.798;2023-04-15T03:49:02;3.60;;;2.03;;
63398;SDS011;49533;-34.520;150.798;2023-04-15T03:51:31;3.95;;;1.65;;
63398;SDS011;49533;-34.520;150.798;2023-04-15T03:53:58;2.20;;;1.88;;
63398;SDS011;49533;-34.520;150.798;2023-04-15T03:56:26;2.22;;;1.63;;
63398;SDS011;49533;-34.520;150.798;2023-04-15T03:58:53;1.90;;;1.10;;
63398;SDS011;49533;-34.520;150.798;2023-04-15T04:01:21;2.45;;;1.30;;
63398;SDS011;49533;-34.520;150.798;2023-04-15T04:03:48;4.25;;;1.63;;
63398;SDS011;49533;-34.520;150.798;2023-04-15T04:06:16;4.72;;;1.67;;
63398;SDS011;49533;-34.520;150.798;2023-04-15T04:08:43;3.60;;;1.13;;
63398;SDS011;49533;-34.520;150.798;2023-04-15T04:11:10;2.33;;;1.27;;
63398;SDS011;49533;-34.520;150.798;2023-04-15T04:13:37;3.22;;;1.50;;
63398;SDS011;49533;-34.520;150.798;2023-04-15T04:16:05;4.50;;;2.38;;
63398;SDS011;49533;-34.520;150.798;2023-04-15T04:18:32;4.88;;;2.45;;
63398;SDS011;49533;-34.520;150.798;2023-04-15T04:21:00;3.88;;;2.60;;
63398;SDS011;49533;-34.520;150.798;2023-04-15T04:23:27;5.55;;;3.15;;
63398;SDS011;49533;-34.520;150.798;2023-04-15T04:25:55;3.00;;;2.53;;
63398;SDS011;49533;-34.520;150.798;2023-04-15T04:28:22;3.88;;;2.30;;
63398;SDS011;49533;-34.520;150.798;2023-04-15T04:30:49;3.65;;;2.30;;
63398;SDS011;49533;-34.520;150.798;2023-04-15T04:33:17;3.17;;;1.63;;
63398;SDS011;49533;-34.520;150.798;2023-04-15T04:35:44;2.95;;;1.55;;
63398;SDS011;49533;-34.520;150.798;2023-04-15T04:38:11;3.78;;;1.77;;
63398;SDS011;49533;-34.520;150.798;2023-04-15T04:40:38;3.97;;;1.83;;
63398;SDS011;49533;-34.520;150.798;2023-04-15T04:43:05;3.25;;;1.80;;
63398;SDS011;49533;-34.520;150.798;2023-04-15T04:45:32;2.72;;;1.60;;
63398;SDS011;49533;-34.520;150.798;2023-04-15T04:47:59;2.97;;;1.88;;
63398;SDS011;49533;-34.520;150.798;2023-04-15T04:50:27;2.88;;;1.40;;
63398;SDS011;49533;-34.520;150.798;2023-04-15T04:52:54;3.53;;;2.30;;
63398;SDS011;49533;-34.520;150.798;2023-04-15T04:55:21;2.92;;;1.15;;
63398;SDS011;49533;-34.520;150.798;2023-04-15T04:57:49;1.48;;;1.20;;
63398;SDS011;49533;-34.520;150.798;2023-04-15T05:00:17;3.42;;;1.48;;
63398;SDS011;49533;-34.520;150.798;2023-04-15T05:02:44;5.30;;;1.20;;
63398;SDS011;49533;-34.520;150.798;2023-04-15T05:05:12;3.40;;;1.45;;
63398;SDS011;49533;-34.520;150.798;2023-04-15T05:07:39;1.75;;;1.40;;
63398;SDS011;49533;-34.520;150.798;2023-04-15T05:10:06;2.53;;;1.40;;
63398;SDS011;49533;-34.520;150.798;2023-04-15T05:12:34;2.80;;;2.00;;
63398;SDS011;49533;-34.520;150.798;2023-04-15T05:15:04;2.55;;;1.30;;
63398;SDS011;49533;-34.520;150.798;2023-04-15T05:17:31;2.83;;;1.23;;
63398;SDS011;49533;-34.520;150.798;2023-04-15T05:20:00;4.10;;;1.50;;
63398;SDS011;49533;-34.520;150.798;2023-04-15T05:22:28;3.42;;;1.30;;
63398;SDS011;49533;-34.520;150.798;2023-04-15T05:24:55;4.38;;;1.35;;
63398;SDS011;49533;-34.520;150.798;2023-04-15T05:27:23;3.80;;;1.25;;
63398;SDS011;49533;-34.520;150.798;2023-04-15T05:29:50;2.47;;;1.30;;
63398;SDS011;49533;-34.520;150.798;2023-04-15T05:32:17;2.42;;;1.17;;
63398;SDS011;49533;-34.520;150.798;2023-04-15T05:34:44;1.92;;;1.15;;
63398;SDS011;49533;-34.520;150.798;2023-04-15T05:37:12;4.15;;;1.52;;
63398;SDS011;49533;-34.520;150.798;2023-04-15T05:39:39;2.22;;;1.25;;
63398;SDS011;49533;-34.520;150.798;2023-04-15T05:42:06;3.08;;;1.58;;
63398;SDS011;49533;-34.520;150.798;2023-04-15T05:44:33;1.95;;;0.82;;
63398;SDS011;49533;-34.520;150.798;2023-04-15T05:47:01;2.65;;;1.02;;
63398;SDS011;49533;-34.520;150.798;2023-04-15T05:49:28;2.95;;;1.38;;
63398;SDS011;49533;-34.520;150.798;2023-04-15T05:51:55;2.67;;;1.10;;
63398;SDS011;49533;-34.520;150.798;2023-04-15T05:54:22;1.35;;;0.90;;
63398;SDS011;49533;-34.520;150.798;2023-04-15T05:56:51;3.72;;;1.13;;
63398;SDS011;49533;-34.520;150.798;2023-04-15T05:59:19;3.03;;;1.20;;
63398;SDS011;49533;-34.520;150.798;2023-04-15T06:01:46;4.72;;;1.55;;
63398;SDS011;49533;-34.520;150.798;2023-04-15T06:04:13;4.85;;;1.38;;
63398;SDS011;49533;-34.520;150.798;2023-04-15T06:06:41;6.95;;;1.73;;
63398;SDS011;49533;-34.520;150.798;2023-04-15T06:09:09;3.90;;;1.65;;
63398;SDS011;49533;-34.520;150.798;2023-04-15T06:11:36;3.92;;;1.30;;
63398;SDS011;49533;-34.520;150.798;2023-04-15T06:14:05;3.42;;;1.38;;
63398;SDS011;49533;-34.520;150.798;2023-04-15T06:16:32;5.22;;;1.50;;
63398;SDS011;49533;-34.520;150.798;2023-04-15T06:19:01;6.15;;;1.77;;
63398;SDS011;49533;-34.520;150.798;2023-04-15T06:21:28;5.88;;;1.45;;
63398;SDS011;49533;-34.520;150.798;2023-04-15T06:23:57;4.45;;;1.50;;
63398;SDS011;49533;-34.520;150.798;2023-04-15T06:26:26;3.60;;;1.30;;
63398;SDS011;49533;-34.520;150.798;2023-04-15T06:28:54;4.00;;;1.40;;
63398;SDS011;49533;-34.520;150.798;2023-04-15T06:31:21;6.28;;;1.77;;
63398;SDS011;49533;-34.520;150.798;2023-04-15T06:33:48;8.15;;;1.90;;
63398;SDS011;49533;-34.520;150.798;2023-04-15T06:36:15;7.05;;;2.10;;
63398;SDS011;49533;-34.520;150.798;2023-04-15T06:38:42;5.43;;;1.98;;
63398;SDS011;49533;-34.520;150.798;2023-04-15T06:41:10;7.68;;;2.22;;
63398;SDS011;49533;-34.520;150.798;2023-04-15T06:43:38;9.57;;;1.80;;
63398;SDS011;49533;-34.520;150.798;2023-04-15T06:46:05;6.13;;;2.03;;
63398;SDS011;49533;-34.520;150.798;2023-04-15T06:48:32;5.90;;;1.92;;
63398;SDS011;49533;-34.520;150.798;2023-04-15T06:50:59;5.15;;;1.77;;
63398;SDS011;49533;-34.520;150.798;2023-04-15T06:53:26;9.05;;;1.98;;
63398;SDS011;49533;-34.520;150.798;2023-04-15T06:55:54;7.60;;;2.03;;
63398;SDS011;49533;-34.520;150.798;2023-04-15T06:58:21;8.45;;;1.95;;
63398;SDS011;49533;-34.520;150.798;2023-04-15T07:00:49;5.80;;;1.80;;
63398;SDS011;49533;-34.520;150.798;2023-04-15T07:03:16;7.43;;;1.95;;
63398;SDS011;49533;-34.520;150.798;2023-04-15T07:05:43;7.68;;;2.42;;
63398;SDS011;49533;-34.520;150.798;2023-04-15T07:08:10;7.13;;;2.15;;
63398;SDS011;49533;-34.520;150.798;2023-04-15T07:10:38;9.23;;;2.38;;
63398;SDS011;49533;-34.520;150.798;2023-04-15T07:13:06;4.53;;;1.73;;
63398;SDS011;49533;-34.520;150.798;2023-04-15T07:15:33;7.38;;;2.40;;
63398;SDS011;49533;-34.520;150.798;2023-04-15T07:18:01;5.82;;;2.17;;
63398;SDS011;49533;-34.520;150.798;2023-04-15T07:20:28;11.07;;;2.97;;
63398;SDS011;49533;-34.520;150.798;2023-04-15T07:22:55;6.50;;;2.15;;
63398;SDS011;49533;-34.520;150.798;2023-04-15T07:25:22;8.02;;;2.25;;
63398;SDS011;49533;-34.520;150.798;2023-04-15T07:27:51;6.40;;;2.17;;
63398;SDS011;49533;-34.520;150.798;2023-04-15T07:30:19;6.68;;;1.85;;
63398;SDS011;49533;-34.520;150.798;2023-04-15T07:32:46;6.32;;;2.45;;
63398;SDS011;49533;-34.520;150.798;2023-04-15T07:35:14;5.55;;;2.05;;
63398;SDS011;49533;-34.520;150.798;2023-04-15T07:37:41;5.55;;;1.90;;
63398;SDS011;49533;-34.520;150.798;2023-04-15T07:40:08;6.95;;;2.28;;
63398;SDS011;49533;-34.520;150.798;2023-04-15T07:42:36;5.72;;;2.05;;
63398;SDS011;49533;-34.520;150.798;2023-04-15T07:45:04;6.32;;;1.60;;
63398;SDS011;49533;-34.520;150.798;2023-04-15T07:47:31;8.20;;;1.95;;
63398;SDS011;49533;-34.520;150.798;2023-04-15T07:49:59;5.53;;;1.95;;
63398;SDS011;49533;-34.520;150.798;2023-04-15T07:52:27;5.05;;;2.05;;
63398;SDS011;49533;-34.520;150.798;2023-04-15T07:54:54;4.63;;;1.75;;
63398;SDS011;49533;-34.520;150.798;2023-04-15T07:57:21;7.20;;;1.73;;
63398;SDS011;49533;-34.520;150.798;2023-04-15T07:59:48;6.32;;;2.38;;
63398;SDS011;49533;-34.520;150.798;2023-04-15T08:02:15;4.72;;;2.65;;
63398;SDS011;49533;-34.520;150.798;2023-04-15T08:04:43;10.60;;;3.30;;
63398;SDS011;49533;-34.520;150.798;2023-04-15T08:07:10;7.18;;;2.53;;
63398;SDS011;49533;-34.520;150.798;2023-04-15T08:09:37;4.10;;;2.17;;
63398;SDS011;49533;-34.520;150.798;2023-04-15T08:12:05;8.05;;;2.72;;
63398;SDS011;49533;-34.520;150.798;2023-04-15T08:14:34;7.40;;;2.60;;
63398;SDS011;49533;-34.520;150.798;2023-04-15T08:17:01;6.32;;;2.38;;
63398;SDS011;49533;-34.520;150.798;2023-04-15T08:19:29;10.63;;;3.05;;
63398;SDS011;49533;-34.520;150.798;2023-04-15T08:21:56;9.43;;;2.85;;
63398;SDS011;49533;-34.520;150.798;2023-04-15T08:24:24;10.60;;;2.75;;
63398;SDS011;49533;-34.520;150.798;2023-04-15T08:26:51;8.48;;;2.45;;
63398;SDS011;49533;-34.520;150.798;2023-04-15T08:29:19;4.38;;;2.03;;
63398;SDS011;49533;-34.520;150.798;2023-04-15T08:31:46;8.15;;;2.65;;
63398;SDS011;49533;-34.520;150.798;2023-04-15T08:34:13;6.05;;;2.65;;
63398;SDS011;49533;-34.520;150.798;2023-04-15T08:36:41;6.03;;;2.55;;
63398;SDS011;49533;-34.520;150.798;2023-04-15T08:39:08;3.92;;;2.15;;
63398;SDS011;49533;-34.520;150.798;2023-04-15T08:41:39;4.82;;;2.30;;
63398;SDS011;49533;-34.520;150.798;2023-04-15T08:44:12;4.00;;;2.25;;
63398;SDS011;49533;-34.520;150.798;2023-04-15T08:46:40;3.83;;;2.00;;
63398;SDS011;49533;-34.520;150.798;2023-04-15T08:49:10;4.65;;;2.28;;
63398;SDS011;49533;-34.520;150.798;2023-04-15T08:51:38;7.13;;;2.28;;
63398;SDS011;49533;-34.520;150.798;2023-04-15T08:54:07;5.00;;;1.83;;
63398;SDS011;49533;-34.520;150.798;2023-04-15T08:56:35;5.25;;;1.58;;
63398;SDS011;49533;-34.520;150.798;2023-04-15T08:59:04;2.75;;;2.22;;
63398;SDS011;49533;-34.520;150.798;2023-04-15T09:01:35;3.38;;;1.95;;
63398;SDS011;49533;-34.520;150.798;2023-04-15T09:04:03;3.78;;;1.88;;
63398;SDS011;49533;-34.520;150.798;2023-04-15T09:06:32;4.63;;;1.90;;
63398;SDS011;49533;-34.520;150.798;2023-04-15T09:09:00;3.80;;;2.10;;
63398;SDS011;49533;-34.520;150.798;2023-04-15T09:11:28;3.38;;;2.13;;
63398;SDS011;49533;-34.520;150.798;2023-04-15T09:13:55;3.42;;;1.95;;
63398;SDS011;49533;-34.520;150.798;2023-04-15T09:16:23;3.30;;;2.15;;
63398;SDS011;49533;-34.520;150.798;2023-04-15T09:18:50;3.05;;;1.73;;
63398;SDS011;49533;-34.520;150.798;2023-04-15T09:21:17;3.80;;;1.90;;
63398;SDS011;49533;-34.520;150.798;2023-04-15T09:23:56;2.38;;;1.67;;
63398;SDS011;49533;-34.520;150.798;2023-04-15T09:26:32;4.75;;;1.92;;
63398;SDS011;49533;-34.520;150.798;2023-04-15T09:29:05;4.20;;;2.00;;
63398;SDS011;49533;-34.520;150.798;2023-04-15T09:31:34;3.40;;;1.85;;
63398;SDS011;49533;-34.520;150.798;2023-04-15T09:34:02;3.83;;;1.63;;
63398;SDS011;49533;-34.520;150.798;2023-04-15T09:36:35;5.25;;;2.10;;
63398;SDS011;49533;-34.520;150.798;2023-04-15T09:39:19;3.22;;;1.70;;
63398;SDS011;49533;-34.520;150.798;2023-04-15T09:41:46;2.55;;;1.70;;
63398;SDS011;49533;-34.520;150.798;2023-04-15T09:44:29;2.17;;;1.80;;
63398;SDS011;49533;-34.520;150.798;2023-04-15T09:46:56;2.28;;;1.80;;
63398;SDS011;49533;-34.520;150.798;2023-04-15T09:49:23;2.70;;;1.75;;
63398;SDS011;49533;-34.520;150.798;2023-04-15T09:51:51;2.85;;;1.63;;
63398;SDS011;49533;-34.520;150.798;2023-04-15T09:54:31;1.88;;;1.50;;
63398;SDS011;49533;-34.520;150.798;2023-04-15T09:57:04;5.40;;;2.35;;
63398;SDS011;49533;-34.520;150.798;2023-04-15T09:59:32;6.30;;;2.28;;
63398;SDS011;49533;-34.520;150.798;2023-04-15T10:01:59;4.85;;;2.17;;
63398;SDS011;49533;-34.520;150.798;2023-04-15T10:04:32;4.80;;;2.40;;
63398;SDS011;49533;-34.520;150.798;2023-04-15T10:07:04;5.45;;;2.60;;
63398;SDS011;49533;-34.520;150.798;2023-04-15T10:09:31;4.03;;;1.70;;
63398;SDS011;49533;-34.520;150.798;2023-04-15T10:12:01;5.28;;;2.05;;
63398;SDS011;49533;-34.520;150.798;2023-04-15T10:14:35;2.13;;;1.60;;
63398;SDS011;49533;-34.520;150.798;2023-04-15T10:17:04;3.90;;;1.80;;
63398;SDS011;49533;-34.520;150.798;2023-04-15T10:19:33;4.35;;;1.63;;
63398;SDS011;49533;-34.520;150.798;2023-04-15T10:22:03;4.75;;;1.70;;
63398;SDS011;49533;-34.520;150.798;2023-04-15T10:24:31;3.97;;;2.05;;
63398;SDS011;49533;-34.520;150.798;2023-04-15T10:26:59;5.93;;;2.15;;
63398;SDS011;49533;-34.520;150.798;2023-04-15T10:29:28;5.38;;;2.08;;
63398;SDS011;49533;-34.520;150.798;2023-04-15T10:31:56;4.75;;;2.00;;
63398;SDS011;49533;-34.520;150.798;2023-04-15T10:34:25;3.95;;;1.95;;
63398;SDS011;49533;-34.520;150.798;2023-04-15T10:36:55;3.42;;;1.70;;
63398;SDS011;49533;-34.520;150.798;2023-04-15T10:39:39;5.32;;;2.28;;
63398;SDS011;49533;-34.520;150.798;2023-04-15T10:42:08;3.30;;;2.10;;
63398;SDS011;49533;-34.520;150.798;2023-04-15T10:44:40;3.85;;;2.00;;
63398;SDS011;49533;-34.520;150.798;2023-04-15T10:47:11;3.92;;;2.10;;
63398;SDS011;49533;-34.520;150.798;2023-04-15T10:49:42;3.60;;;1.80;;
63398;SDS011;49533;-34.520;150.798;2023-04-15T10:52:21;3.70;;;2.03;;
63398;SDS011;49533;-34.520;150.798;2023-04-15T10:55:01;3.47;;;1.95;;
63398;SDS011;49533;-34.520;150.798;2023-04-15T10:57:40;4.65;;;1.88;;
63398;SDS011;49533;-34.520;150.798;2023-04-15T11:00:11;3.00;;;2.00;;
63398;SDS011;49533;-34.520;150.798;2023-04-15T11:02:40;3.22;;;1.42;;
63398;SDS011;49533;-34.520;150.798;2023-04-15T11:05:13;5.30;;;1.85;;
63398;SDS011;49533;-34.520;150.798;2023-04-15T11:07:47;2.20;;;1.60;;
63398;SDS011;49533;-34.520;150.798;2023-04-15T11:10:48;2.67;;;2.10;;
63398;SDS011;49533;-34.520;150.798;2023-04-15T11:13:19;2.97;;;2.05;;
63398;SDS011;49533;-34.520;150.798;2023-04-15T11:15:47;2.85;;;1.73;;
63398;SDS011;49533;-34.520;150.798;2023-04-15T11:18:20;2.80;;;1.63;;
63398;SDS011;49533;-34.520;150.798;2023-04-15T11:20:49;2.28;;;1.67;;
63398;SDS011;49533;-34.520;150.798;2023-04-15T11:23:27;2.67;;;1.52;;
63398;SDS011;49533;-34.520;150.798;2023-04-15T11:25:58;2.60;;;1.63;;
63398;SDS011;49533;-34.520;150.798;2023-04-15T11:28:28;2.88;;;1.48;;
63398;SDS011;49533;-34.520;150.798;2023-04-15T11:30:56;2.53;;;1.48;;
63398;SDS011;49533;-34.520;150.798;2023-04-15T11:33:24;2.67;;;1.83;;
63398;SDS011;49533;-34.520;150.798;2023-04-15T11:35:52;1.63;;;1.35;;
63398;SDS011;49533;-34.520;150.798;2023-04-15T11:38:19;2.45;;;1.25;;
63398;SDS011;49533;-34.520;150.798;2023-04-15T11:40:47;5.32;;;1.88;;
63398;SDS011;49533;-34.520;150.798;2023-04-15T11:43:19;3.17;;;1.92;;
63398;SDS011;49533;-34.520;150.798;2023-04-15T11:45:55;4.15;;;1.60;;
63398;SDS011;49533;-34.520;150.798;2023-04-15T11:48:26;3.65;;;1.52;;
63398;SDS011;49533;-34.520;150.798;2023-04-15T11:50:59;2.13;;;1.20;;
63398;SDS011;49533;-34.520;150.798;2023-04-15T11:53:36;2.22;;;1.38;;
63398;SDS011;49533;-34.520;150.798;2023-04-15T11:56:16;2.60;;;1.70;;
63398;SDS011;49533;-34.520;150.798;2023-04-15T11:58:46;2.75;;;1.30;;
63398;SDS011;49533;-34.520;150.798;2023-04-15T12:01:15;1.98;;;1.10;;
63398;SDS011;49533;-34.520;150.798;2023-04-15T12:03:46;2.50;;;1.42;;
63398;SDS011;49533;-34.520;150.798;2023-04-15T12:06:18;2.50;;;1.27;;
63398;SDS011;49533;-34.520;150.798;2023-04-15T12:08:56;2.53;;;1.40;;
63398;SDS011;49533;-34.520;150.798;2023-04-15T12:11:28;5.22;;;1.70;;
63398;SDS011;49533;-34.520;150.798;2023-04-15T12:14:01;3.10;;;1.58;;
63398;SDS011;49533;-34.520;150.798;2023-04-15T12:16:30;2.95;;;1.83;;
63398;SDS011;49533;-34.520;150.798;2023-04-15T12:19:03;2.42;;;1.52;;
63398;SDS011;49533;-34.520;150.798;2023-04-15T12:21:33;1.63;;;1.15;;
63398;SDS011;49533;-34.520;150.798;2023-04-15T12:24:02;4.22;;;1.15;;
63398;SDS011;49533;-34.520;150.798;2023-04-15T12:26:33;5.70;;;1.80;;
63398;SDS011;49533;-34.520;150.798;2023-04-15T12:29:04;2.22;;;1.60;;
63398;SDS011;49533;-34.520;150.798;2023-04-15T12:31:34;2.05;;;1.45;;
63398;SDS011;49533;-34.520;150.798;2023-04-15T12:34:02;2.85;;;1.33;;
63398;SDS011;49533;-34.520;150.798;2023-04-15T12:36:33;2.58;;;1.50;;
63398;SDS011;49533;-34.520;150.798;2023-04-15T12:39:02;1.85;;;1.15;;
63398;SDS011;49533;-34.520;150.798;2023-04-15T12:41:31;4.65;;;1.50;;
63398;SDS011;49533;-34.520;150.798;2023-04-15T12:43:58;3.00;;;1.35;;
63398;SDS011;49533;-34.520;150.798;2023-04-15T12:46:26;2.08;;;1.30;;
63398;SDS011;49533;-34.520;150.798;2023-04-15T12:48:53;2.35;;;1.30;;
63398;SDS011;49533;-34.520;150.798;2023-04-15T12:51:24;2.72;;;1.67;;
63398;SDS011;49533;-34.520;150.798;2023-04-15T12:53:52;1.25;;;1.15;;
63398;SDS011;49533;-34.520;150.798;2023-04-15T12:56:19;2.08;;;1.27;;
63398;SDS011;49533;-34.520;150.798;2023-04-15T12:58:47;2.25;;;1.10;;
63398;SDS011;49533;-34.520;150.798;2023-04-15T13:01:14;1.55;;;1.02;;
63398;SDS011;49533;-34.520;150.798;2023-04-15T13:03:41;3.08;;;1.55;;
63398;SDS011;49533;-34.520;150.798;2023-04-15T13:06:08;2.55;;;1.23;;
63398;SDS011;49533;-34.520;150.798;2023-04-15T13:08:36;1.45;;;1.20;;
63398;SDS011;49533;-34.520;150.798;2023-04-15T13:11:03;1.77;;;1.30;;
63398;SDS011;49533;-34.520;150.798;2023-04-15T13:13:30;3.95;;;1.73;;
63398;SDS011;49533;-34.520;150.798;2023-04-15T13:15:58;2.63;;;1.33;;
63398;SDS011;49533;-34.520;150.798;2023-04-15T13:18:25;0.95;;;0.80;;
63398;SDS011;49533;-34.520;150.798;2023-04-15T13:20:52;2.40;;;1.00;;
63398;SDS011;49533;-34.520;150.798;2023-04-15T13:23:21;2.88;;;1.50;;
63398;SDS011;49533;-34.520;150.798;2023-04-15T13:25:48;2.13;;;1.08;;
63398;SDS011;49533;-34.520;150.798;2023-04-15T13:28:15;1.98;;;1.10;;
63398;SDS011;49533;-34.520;150.798;2023-04-15T13:30:42;2.38;;;1.13;;
63398;SDS011;49533;-34.520;150.798;2023-04-15T13:33:10;1.67;;;1.25;;
63398;SDS011;49533;-34.520;150.798;2023-04-15T13:35:38;1.20;;;0.90;;
63398;SDS011;49533;-34.520;150.798;2023-04-15T13:38:05;1.63;;;1.00;;
63398;SDS011;49533;-34.520;150.798;2023-04-15T13:40:32;1.58;;;0.98;;
63398;SDS011;49533;-34.520;150.798;2023-04-15T13:43:00;1.77;;;1.13;;
63398;SDS011;49533;-34.520;150.798;2023-04-15T13:45:28;2.40;;;1.00;;
63398;SDS011;49533;-34.520;150.798;2023-04-15T13:47:55;3.15;;;1.05;;
63398;SDS011;49533;-34.520;150.798;2023-04-15T13:50:22;1.90;;;0.82;;
63398;SDS011;49533;-34.520;150.798;2023-04-15T13:52:50;1.52;;;1.05;;
63398;SDS011;49533;-34.520;150.798;2023-04-15T13:55:17;2.45;;;0.93;;
63398;SDS011;49533;-34.520;150.798;2023-04-15T13:57:44;2.20;;;0.98;;
63398;SDS011;49533;-34.520;150.798;2023-04-15T14:00:11;1.52;;;0.90;;
63398;SDS011;49533;-34.520;150.798;2023-04-15T14:02:39;1.00;;;0.88;;
63398;SDS011;49533;-34.520;150.798;2023-04-15T14:05:07;4.60;;;1.10;;
63398;SDS011;49533;-34.520;150.798;2023-04-15T14:07:34;1.23;;;0.80;;
63398;SDS011;49533;-34.520;150.798;2023-04-15T14:10:02;1.25;;;0.95;;
63398;SDS011;49533;-34.520;150.798;2023-04-15T14:12:29;1.75;;;1.10;;
63398;SDS011;49533;-34.520;150.798;2023-04-15T14:14:57;1.40;;;0.82;;
63398;SDS011;49533;-34.520;150.798;2023-04-15T14:17:24;0.98;;;0.80;;